Cedarville, New York
Current Conditions -  °F | °C
As of 9:24 AM on Friday 28 Nov 2014 (Local Time) from KRME Reporting Station
Light Snow Light Snow  
Wind Chill: 17°   Ceiling: 1800
Heat Index: 23°   Visibility: 0.75mi
Dew Point: 21°   Wind: 5mph
Humidity: 92%   Direction: 300°WNW
Pressure: 30.19"   Gusts: NA
Location:  42.9693°N, 75.0798°W
Report Text: KRME 281424Z AUTO 30004KT 3/4SM -SN BR BKN018 OVC033 M05/M06 A3019 RMK AO2 P0000 T10501061 RVRNO
Loading
Personal Weather Stations






























Interactive Weather Map New forecast layout! Learn more

10-Day Weather Forecast

Advertisements
Track Severe Weather on mobile